Strona główna
METAR-TAF:

METAR-TAF

Lotnisko :

Uberlândia, Minas Gerais, Brazylia

Szerokość geograficzna: 18-53S, Długość geograficzna: 048-14W, wysokość: 943 m

Aktualna obserwacja pogody

Raport powstał 37 minut temu, godzina 02:00 UTC
Wiatr 2 kt od południowy wschód
Temperatura 24°C
Wilgotność 69%
Ciśnienie 1017 hPa
Widzialność 10 km lub więcej
Mało chmury na wysokości 4500 ft

METAR: SBUL 190200Z 13002KT 9999 FEW045 24/18 Q1017

czas: 23:37 (02:37 UTC)

Prognoza

Raport powstał 5 godziny i 27 minut temu, godzina 21:10 UTC
Prognoza ważna od 19 godzina 00 UTC do 19 godzina 12 UTC
Wiatr 5 kt od północny wschód
Widzialność: 7000 m
Rozproszone chmury na wysokości 500 ft
Przerywane chmury na wysokości 2000 ft
Mało chmury na wysokości 4000 ft, Cumulonimbus.
burza, deszcz
Prawdopodobieństwo 30%
od 19 godzina 07 UTC do 19 godzina 11 UTC
Przerywane chmury na wysokości 700 ft

TAF: SBUL 182110Z 1900/1912 05005KT 9999 SCT030TN20/1909Z TX25/1912ZTEMPO 1900/1904 7000 TSRA SCT005 BKN020 FEW040CB PROB30 1907/1911 BKN007 RMK PGN

Obserwacja i prognoza pogody dla ponad 4000 lotnisk (raport METAR i TAF).

Dostępne stacje oznaczono żółtymi i czerwonymi punktami na mapie.

Najedź kursorem aby zobaczyć nazwę stacji.

Kliknij aby zobaczyć obserwacje i prognozy pogody.

Aby zmienić mapę: kliknij na zielony przycisk z czarnym krzyżykiem, aby powiększyć; na zielony przycisk z myślnikiem, aby pomniejszyć; na zielone strzałki, aby przejść do map sąsiednich.


METAR-TAF: